sensor_id;sensor_type;location;lat;lon;timestamp;temperature;humidity
13684;DHT22;6914;53.552;9.908;2023-03-01T00:01:10;0.20;99.90
13684;DHT22;6914;53.552;9.908;2023-03-01T00:03:37;0.10;99.90
13684;DHT22;6914;53.552;9.908;2023-03-01T00:06:05;0.00;99.90
13684;DHT22;6914;53.552;9.908;2023-03-01T00:08:33;0.00;99.90
13684;DHT22;6914;53.552;9.908;2023-03-01T00:11:01;0.20;99.90
13684;DHT22;6914;53.552;9.908;2023-03-01T00:13:29;0.10;99.90
13684;DHT22;6914;53.552;9.908;2023-03-01T00:15:55;0.10;99.90
13684;DHT22;6914;53.552;9.908;2023-03-01T00:18:23;0.10;99.90
13684;DHT22;6914;53.552;9.908;2023-03-01T00:20:50;0.00;99.90
13684;DHT22;6914;53.552;9.908;2023-03-01T00:23:18;0.10;99.90
13684;DHT22;6914;53.552;9.908;2023-03-01T00:25:46;-1.50;99.90
13684;DHT22;6914;53.552;9.908;2023-03-01T00:28:19;0.10;99.90
13684;DHT22;6914;53.552;9.908;2023-03-01T00:30:46;0.00;99.90
13684;DHT22;6914;53.552;9.908;2023-03-01T00:33:14;-0.20;99.90
13684;DHT22;6914;53.552;9.908;2023-03-01T00:35:44;-0.30;99.90
13684;DHT22;6914;53.552;9.908;2023-03-01T00:38:11;-0.20;99.90
13684;DHT22;6914;53.552;9.908;2023-03-01T00:40:40;-0.40;99.90
13684;DHT22;6914;53.552;9.908;2023-03-01T00:43:08;-0.30;99.90
13684;DHT22;6914;53.552;9.908;2023-03-01T00:45:35;-0.20;99.90
13684;DHT22;6914;53.552;9.908;2023-03-01T00:48:02;-0.20;99.90
13684;DHT22;6914;53.552;9.908;2023-03-01T00:50:29;-0.20;99.90
13684;DHT22;6914;53.552;9.908;2023-03-01T00:52:56;-0.30;99.90
13684;DHT22;6914;53.552;9.908;2023-03-01T00:55:23;-0.30;99.90
13684;DHT22;6914;53.552;9.908;2023-03-01T00:57:50;-0.30;99.90
13684;DHT22;6914;53.552;9.908;2023-03-01T01:00:20;-0.30;99.90
13684;DHT22;6914;53.552;9.908;2023-03-01T01:02:47;-0.20;99.90
13684;DHT22;6914;53.552;9.908;2023-03-01T01:05:15;-0.60;99.90
13684;DHT22;6914;53.552;9.908;2023-03-01T01:07:46;-0.40;99.90
13684;DHT22;6914;53.552;9.908;2023-03-01T01:10:13;-0.30;99.90
13684;DHT22;6914;53.552;9.908;2023-03-01T01:12:44;-0.50;99.90
13684;DHT22;6914;53.552;9.908;2023-03-01T01:15:11;-0.40;99.90
13684;DHT22;6914;53.552;9.908;2023-03-01T01:17:40;-0.40;99.90
13684;DHT22;6914;53.552;9.908;2023-03-01T01:20:08;-0.50;99.90
13684;DHT22;6914;53.552;9.908;2023-03-01T01:22:35;-0.60;99.90
13684;DHT22;6914;53.552;9.908;2023-03-01T01:25:02;-0.70;99.90
13684;DHT22;6914;53.552;9.908;2023-03-01T01:27:29;-0.50;99.90
13684;DHT22;6914;53.552;9.908;2023-03-01T01:29:56;-0.60;99.90
13684;DHT22;6914;53.552;9.908;2023-03-01T01:32:23;-0.50;99.90
13684;DHT22;6914;53.552;9.908;2023-03-01T01:34:51;-0.60;99.90
13684;DHT22;6914;53.552;9.908;2023-03-01T01:37:19;-1.90;99.90
13684;DHT22;6914;53.552;9.908;2023-03-01T01:39:45;-0.60;99.90
13684;DHT22;6914;53.552;9.908;2023-03-01T01:42:16;-0.60;99.90
13684;DHT22;6914;53.552;9.908;2023-03-01T01:44:47;-1.70;99.90
13684;DHT22;6914;53.552;9.908;2023-03-01T01:47:16;-0.60;99.90
13684;DHT22;6914;53.552;9.908;2023-03-01T01:49:47;-0.10;99.90
13684;DHT22;6914;53.552;9.908;2023-03-01T01:52:23;0.00;99.90
13684;DHT22;6914;53.552;9.908;2023-03-01T01:54:53;-0.70;99.90
13684;DHT22;6914;53.552;9.908;2023-03-01T01:57:24;-0.70;99.90
13684;DHT22;6914;53.552;9.908;2023-03-01T01:59:53;-0.70;99.90
13684;DHT22;6914;53.552;9.908;2023-03-01T02:02:22;-0.70;99.90
13684;DHT22;6914;53.552;9.908;2023-03-01T02:04:53;-0.70;99.90
13684;DHT22;6914;53.552;9.908;2023-03-01T02:07:23;-0.70;99.90
13684;DHT22;6914;53.552;9.908;2023-03-01T02:09:52;-0.70;99.90
13684;DHT22;6914;53.552;9.908;2023-03-01T02:12:23;-0.50;99.90
13684;DHT22;6914;53.552;9.908;2023-03-01T02:14:49;-0.60;99.90
13684;DHT22;6914;53.552;9.908;2023-03-01T02:17:17;-0.30;99.90
13684;DHT22;6914;53.552;9.908;2023-03-01T02:19:53;-0.60;99.90
13684;DHT22;6914;53.552;9.908;2023-03-01T02:22:28;-0.60;99.90
13684;DHT22;6914;53.552;9.908;2023-03-01T02:25:06;-0.20;99.90
13684;DHT22;6914;53.552;9.908;2023-03-01T02:27:40;-0.60;99.90
13684;DHT22;6914;53.552;9.908;2023-03-01T02:30:11;-0.60;99.90
13684;DHT22;6914;53.552;9.908;2023-03-01T02:32:39;-1.20;99.90
13684;DHT22;6914;53.552;9.908;2023-03-01T02:35:08;-0.50;99.90
13684;DHT22;6914;53.552;9.908;2023-03-01T02:37:36;-0.50;99.90
13684;DHT22;6914;53.552;9.908;2023-03-01T02:40:07;-0.60;99.90
13684;DHT22;6914;53.552;9.908;2023-03-01T02:42:47;-0.50;99.90
13684;DHT22;6914;53.552;9.908;2023-03-01T02:45:17;-0.40;99.90
13684;DHT22;6914;53.552;9.908;2023-03-01T02:47:48;-0.60;99.90
13684;DHT22;6914;53.552;9.908;2023-03-01T02:50:25;-0.30;99.90
13684;DHT22;6914;53.552;9.908;2023-03-01T02:53:01;-0.50;99.90
13684;DHT22;6914;53.552;9.908;2023-03-01T02:55:31;-0.60;99.90
13684;DHT22;6914;53.552;9.908;2023-03-01T02:58:00;-0.50;99.90
13684;DHT22;6914;53.552;9.908;2023-03-01T03:00:35;0.30;99.90
13684;DHT22;6914;53.552;9.908;2023-03-01T03:03:06;-0.60;99.90
13684;DHT22;6914;53.552;9.908;2023-03-01T03:05:33;-0.20;99.90
13684;DHT22;6914;53.552;9.908;2023-03-01T03:08:02;-0.40;99.90
13684;DHT22;6914;53.552;9.908;2023-03-01T03:10:31;-0.20;99.90
13684;DHT22;6914;53.552;9.908;2023-03-01T03:13:00;-0.50;99.90
13684;DHT22;6914;53.552;9.908;2023-03-01T03:15:28;-0.40;99.90
13684;DHT22;6914;53.552;9.908;2023-03-01T03:17:57;-0.40;99.90
13684;DHT22;6914;53.552;9.908;2023-03-01T03:20:26;-0.20;99.90
13684;DHT22;6914;53.552;9.908;2023-03-01T03:22:56;-0.40;99.90
13684;DHT22;6914;53.552;9.908;2023-03-01T03:25:24;-0.60;99.90
13684;DHT22;6914;53.552;9.908;2023-03-01T03:27:51;-0.30;99.90
13684;DHT22;6914;53.552;9.908;2023-03-01T03:30:24;-0.40;99.90
13684;DHT22;6914;53.552;9.908;2023-03-01T03:32:52;-0.40;99.90
13684;DHT22;6914;53.552;9.908;2023-03-01T03:35:27;-0.30;99.90
13684;DHT22;6914;53.552;9.908;2023-03-01T03:37:56;-0.40;99.90
13684;DHT22;6914;53.552;9.908;2023-03-01T03:40:31;-0.40;99.90
13684;DHT22;6914;53.552;9.908;2023-03-01T03:42:57;-0.40;99.90
13684;DHT22;6914;53.552;9.908;2023-03-01T03:45:24;-1.30;99.90
13684;DHT22;6914;53.552;9.908;2023-03-01T03:47:51;-0.30;99.90
13684;DHT22;6914;53.552;9.908;2023-03-01T03:50:22;-0.30;99.90
13684;DHT22;6914;53.552;9.908;2023-03-01T03:52:48;-0.30;99.90
13684;DHT22;6914;53.552;9.908;2023-03-01T03:55:15;-0.20;99.90
13684;DHT22;6914;53.552;9.908;2023-03-01T03:57:45;0.00;99.90
13684;DHT22;6914;53.552;9.908;2023-03-01T04:00:18;1.10;99.90
13684;DHT22;6914;53.552;9.908;2023-03-01T04:02:46;0.20;99.90
13684;DHT22;6914;53.552;9.908;2023-03-01T04:05:15;0.30;99.90
13684;DHT22;6914;53.552;9.908;2023-03-01T04:07:46;0.40;99.90
13684;DHT22;6914;53.552;9.908;2023-03-01T04:10:15;0.40;99.90
13684;DHT22;6914;53.552;9.908;2023-03-01T04:12:43;0.40;99.90
13684;DHT22;6914;53.552;9.908;2023-03-01T04:15:11;0.40;99.90
13684;DHT22;6914;53.552;9.908;2023-03-01T04:17:42;0.50;99.90
13684;DHT22;6914;53.552;9.908;2023-03-01T04:20:10;0.50;99.90
13684;DHT22;6914;53.552;9.908;2023-03-01T04:22:37;0.40;99.90
13684;DHT22;6914;53.552;9.908;2023-03-01T04:25:06;0.40;99.90
13684;DHT22;6914;53.552;9.908;2023-03-01T04:27:34;0.40;99.90
13684;DHT22;6914;53.552;9.908;2023-03-01T04:30:02;0.30;99.90
13684;DHT22;6914;53.552;9.908;2023-03-01T04:32:30;0.30;99.90
13684;DHT22;6914;53.552;9.908;2023-03-01T04:34:57;0.30;99.90
13684;DHT22;6914;53.552;9.908;2023-03-01T04:37:24;0.40;99.90
13684;DHT22;6914;53.552;9.908;2023-03-01T04:39:50;0.50;99.90
13684;DHT22;6914;53.552;9.908;2023-03-01T04:42:19;0.50;99.90
13684;DHT22;6914;53.552;9.908;2023-03-01T04:44:46;0.50;99.90
13684;DHT22;6914;53.552;9.908;2023-03-01T04:47:16;0.60;99.90
13684;DHT22;6914;53.552;9.908;2023-03-01T04:49:43;0.80;99.90
13684;DHT22;6914;53.552;9.908;2023-03-01T04:52:10;0.80;99.90
13684;DHT22;6914;53.552;9.908;2023-03-01T04:54:37;0.70;99.90
13684;DHT22;6914;53.552;9.908;2023-03-01T04:57:03;-0.30;99.90
13684;DHT22;6914;53.552;9.908;2023-03-01T04:59:32;0.90;99.90
13684;DHT22;6914;53.552;9.908;2023-03-01T05:01:59;0.90;99.90
13684;DHT22;6914;53.552;9.908;2023-03-01T05:04:26;0.80;99.90
13684;DHT22;6914;53.552;9.908;2023-03-01T05:06:53;0.80;99.90
13684;DHT22;6914;53.552;9.908;2023-03-01T05:09:21;0.90;99.90
13684;DHT22;6914;53.552;9.908;2023-03-01T05:11:51;1.20;99.90
13684;DHT22;6914;53.552;9.908;2023-03-01T05:14:17;0.90;99.90
13684;DHT22;6914;53.552;9.908;2023-03-01T05:16:46;0.80;99.90
13684;DHT22;6914;53.552;9.908;2023-03-01T05:19:12;0.80;99.90
13684;DHT22;6914;53.552;9.908;2023-03-01T05:21:41;0.80;99.90
13684;DHT22;6914;53.552;9.908;2023-03-01T05:24:21;0.90;99.90
13684;DHT22;6914;53.552;9.908;2023-03-01T05:26:50;0.90;99.90
13684;DHT22;6914;53.552;9.908;2023-03-01T05:29:18;0.80;99.90
13684;DHT22;6914;53.552;9.908;2023-03-01T05:31:56;0.80;99.90
13684;DHT22;6914;53.552;9.908;2023-03-01T05:34:27;0.90;99.90
13684;DHT22;6914;53.552;9.908;2023-03-01T05:36:55;0.90;99.90
13684;DHT22;6914;53.552;9.908;2023-03-01T05:39:26;0.70;99.90
13684;DHT22;6914;53.552;9.908;2023-03-01T05:41:54;0.80;99.90
13684;DHT22;6914;53.552;9.908;2023-03-01T05:44:22;0.80;99.90
13684;DHT22;6914;53.552;9.908;2023-03-01T05:46:51;0.80;99.90
13684;DHT22;6914;53.552;9.908;2023-03-01T05:49:20;0.70;99.90
13684;DHT22;6914;53.552;9.908;2023-03-01T05:51:51;0.80;99.90
13684;DHT22;6914;53.552;9.908;2023-03-01T05:54:18;1.10;99.90
13684;DHT22;6914;53.552;9.908;2023-03-01T05:56:45;0.80;99.90
13684;DHT22;6914;53.552;9.908;2023-03-01T05:59:12;0.90;99.90
13684;DHT22;6914;53.552;9.908;2023-03-01T06:01:40;0.90;99.90
13684;DHT22;6914;53.552;9.908;2023-03-01T06:04:07;0.80;99.90
13684;DHT22;6914;53.552;9.908;2023-03-01T06:06:36;0.90;99.90
13684;DHT22;6914;53.552;9.908;2023-03-01T06:09:03;0.90;99.90
13684;DHT22;6914;53.552;9.908;2023-03-01T06:11:33;0.90;99.90
13684;DHT22;6914;53.552;9.908;2023-03-01T06:14:00;0.80;99.90
13684;DHT22;6914;53.552;9.908;2023-03-01T06:16:27;1.00;99.90
13684;DHT22;6914;53.552;9.908;2023-03-01T06:18:53;0.80;99.90
13684;DHT22;6914;53.552;9.908;2023-03-01T06:21:20;0.80;99.90
13684;DHT22;6914;53.552;9.908;2023-03-01T06:23:48;0.90;99.90
13684;DHT22;6914;53.552;9.908;2023-03-01T06:26:15;0.90;99.90
13684;DHT22;6914;53.552;9.908;2023-03-01T06:28:42;0.60;99.90
13684;DHT22;6914;53.552;9.908;2023-03-01T06:31:11;0.90;99.90
13684;DHT22;6914;53.552;9.908;2023-03-01T06:33:38;1.10;99.90
13684;DHT22;6914;53.552;9.908;2023-03-01T06:36:05;0.80;99.90
13684;DHT22;6914;53.552;9.908;2023-03-01T06:38:32;0.80;99.90
13684;DHT22;6914;53.552;9.908;2023-03-01T06:41:00;1.10;99.90
13684;DHT22;6914;53.552;9.908;2023-03-01T06:43:27;1.10;99.90
13684;DHT22;6914;53.552;9.908;2023-03-01T06:45:54;1.00;99.90
13684;DHT22;6914;53.552;9.908;2023-03-01T06:48:21;1.00;99.90
13684;DHT22;6914;53.552;9.908;2023-03-01T06:50:48;1.10;99.90
13684;DHT22;6914;53.552;9.908;2023-03-01T06:53:14;1.20;99.90
13684;DHT22;6914;53.552;9.908;2023-03-01T06:55:41;1.10;99.90
13684;DHT22;6914;53.552;9.908;2023-03-01T06:58:09;1.10;99.90
13684;DHT22;6914;53.552;9.908;2023-03-01T07:00:37;1.60;99.90
13684;DHT22;6914;53.552;9.908;2023-03-01T07:03:06;1.30;99.90
13684;DHT22;6914;53.552;9.908;2023-03-01T07:05:33;1.40;99.90
13684;DHT22;6914;53.552;9.908;2023-03-01T07:08:00;1.30;99.90
13684;DHT22;6914;53.552;9.908;2023-03-01T07:10:27;1.40;99.90
13684;DHT22;6914;53.552;9.908;2023-03-01T07:12:57;1.50;99.90
13684;DHT22;6914;53.552;9.908;2023-03-01T07:15:28;1.50;99.90
13684;DHT22;6914;53.552;9.908;2023-03-01T07:17:56;1.50;99.90
13684;DHT22;6914;53.552;9.908;2023-03-01T07:20:23;1.40;99.90
13684;DHT22;6914;53.552;9.908;2023-03-01T07:22:52;1.80;99.90
13684;DHT22;6914;53.552;9.908;2023-03-01T07:25:19;1.50;99.90
13684;DHT22;6914;53.552;9.908;2023-03-01T07:27:49;1.60;99.90
13684;DHT22;6914;53.552;9.908;2023-03-01T07:30:17;1.70;99.90
13684;DHT22;6914;53.552;9.908;2023-03-01T07:32:45;1.70;99.90
13684;DHT22;6914;53.552;9.908;2023-03-01T07:35:12;3.00;99.90
13684;DHT22;6914;53.552;9.908;2023-03-01T07:37:40;1.80;99.90
13684;DHT22;6914;53.552;9.908;2023-03-01T07:40:08;1.90;99.90
13684;DHT22;6914;53.552;9.908;2023-03-01T07:42:35;2.20;99.90
13684;DHT22;6914;53.552;9.908;2023-03-01T07:45:02;2.30;99.90
13684;DHT22;6914;53.552;9.908;2023-03-01T07:47:28;2.40;99.90
13684;DHT22;6914;53.552;9.908;2023-03-01T07:49:57;2.40;99.90
13684;DHT22;6914;53.552;9.908;2023-03-01T07:52:24;2.80;99.90
13684;DHT22;6914;53.552;9.908;2023-03-01T07:54:52;2.60;99.90
13684;DHT22;6914;53.552;9.908;2023-03-01T07:57:19;2.50;99.90
13684;DHT22;6914;53.552;9.908;2023-03-01T07:59:45;2.90;99.90
13684;DHT22;6914;53.552;9.908;2023-03-01T08:02:12;2.70;99.90
13684;DHT22;6914;53.552;9.908;2023-03-01T08:04:40;2.90;99.90
13684;DHT22;6914;53.552;9.908;2023-03-01T08:07:08;2.90;99.90
13684;DHT22;6914;53.552;9.908;2023-03-01T08:09:35;2.90;99.90
13684;DHT22;6914;53.552;9.908;2023-03-01T08:12:03;2.90;99.90
13684;DHT22;6914;53.552;9.908;2023-03-01T08:14:30;3.00;99.90
13684;DHT22;6914;53.552;9.908;2023-03-01T08:16:57;2.50;99.90
13684;DHT22;6914;53.552;9.908;2023-03-01T08:19:24;3.10;99.90
13684;DHT22;6914;53.552;9.908;2023-03-01T08:21:54;2.30;99.90
13684;DHT22;6914;53.552;9.908;2023-03-01T08:24:29;4.10;99.90
13684;DHT22;6914;53.552;9.908;2023-03-01T08:26:56;3.60;99.90
13684;DHT22;6914;53.552;9.908;2023-03-01T08:29:23;3.60;99.90
13684;DHT22;6914;53.552;9.908;2023-03-01T08:31:52;4.70;99.90
13684;DHT22;6914;53.552;9.908;2023-03-01T08:34:19;3.80;99.90
13684;DHT22;6914;53.552;9.908;2023-03-01T08:36:46;3.80;99.90
13684;DHT22;6914;53.552;9.908;2023-03-01T08:39:15;3.90;99.90
13684;DHT22;6914;53.552;9.908;2023-03-01T08:41:43;4.00;99.90
13684;DHT22;6914;53.552;9.908;2023-03-01T08:44:12;4.10;99.90
13684;DHT22;6914;53.552;9.908;2023-03-01T08:46:40;4.10;99.90
13684;DHT22;6914;53.552;9.908;2023-03-01T08:49:08;4.10;99.90
13684;DHT22;6914;53.552;9.908;2023-03-01T08:51:37;4.70;99.90
13684;DHT22;6914;53.552;9.908;2023-03-01T08:54:04;4.40;99.90
13684;DHT22;6914;53.552;9.908;2023-03-01T08:56:31;4.60;99.90
13684;DHT22;6914;53.552;9.908;2023-03-01T08:58:59;4.60;99.90
13684;DHT22;6914;53.552;9.908;2023-03-01T09:01:29;4.90;99.90
13684;DHT22;6914;53.552;9.908;2023-03-01T09:03:56;5.00;99.90
13684;DHT22;6914;53.552;9.908;2023-03-01T09:06:23;5.00;99.90
13684;DHT22;6914;53.552;9.908;2023-03-01T09:08:51;4.90;99.90
13684;DHT22;6914;53.552;9.908;2023-03-01T09:11:20;5.20;99.90
13684;DHT22;6914;53.552;9.908;2023-03-01T09:13:47;5.20;99.90
13684;DHT22;6914;53.552;9.908;2023-03-01T09:16:17;5.30;99.90
13684;DHT22;6914;53.552;9.908;2023-03-01T09:18:49;5.40;99.90
13684;DHT22;6914;53.552;9.908;2023-03-01T09:21:18;5.40;99.90
13684;DHT22;6914;53.552;9.908;2023-03-01T09:23:47;5.70;99.90
13684;DHT22;6914;53.552;9.908;2023-03-01T09:26:16;7.20;99.90
13684;DHT22;6914;53.552;9.908;2023-03-01T09:28:44;6.00;99.90
13684;DHT22;6914;53.552;9.908;2023-03-01T09:31:12;6.10;99.90
13684;DHT22;6914;53.552;9.908;2023-03-01T09:33:40;6.20;99.90
13684;DHT22;6914;53.552;9.908;2023-03-01T09:36:10;6.50;99.90
13684;DHT22;6914;53.552;9.908;2023-03-01T09:38:38;6.50;99.90
13684;DHT22;6914;53.552;9.908;2023-03-01T09:41:09;6.30;99.90
13684;DHT22;6914;53.552;9.908;2023-03-01T09:43:42;6.20;99.90
13684;DHT22;6914;53.552;9.908;2023-03-01T09:46:13;6.10;99.90
13684;DHT22;6914;53.552;9.908;2023-03-01T09:48:46;6.10;99.90
13684;DHT22;6914;53.552;9.908;2023-03-01T09:51:19;6.30;99.90
13684;DHT22;6914;53.552;9.908;2023-03-01T09:53:56;7.00;99.90
13684;DHT22;6914;53.552;9.908;2023-03-01T09:56:28;7.80;99.90
13684;DHT22;6914;53.552;9.908;2023-03-01T09:59:01;8.50;99.90
13684;DHT22;6914;53.552;9.908;2023-03-01T10:01:34;8.90;99.90
13684;DHT22;6914;53.552;9.908;2023-03-01T10:04:28;8.80;99.90
13684;DHT22;6914;53.552;9.908;2023-03-01T10:07:09;9.20;99.10
13684;DHT22;6914;53.552;9.908;2023-03-01T10:09:42;9.80;96.50
13684;DHT22;6914;53.552;9.908;2023-03-01T10:12:12;9.50;98.10
13684;DHT22;6914;53.552;9.908;2023-03-01T10:14:47;9.10;99.90
13684;DHT22;6914;53.552;9.908;2023-03-01T10:17:27;10.80;99.90
13684;DHT22;6914;53.552;9.908;2023-03-01T10:19:58;8.90;97.10
13684;DHT22;6914;53.552;9.908;2023-03-01T10:22:36;10.10;92.10
13684;DHT22;6914;53.552;9.908;2023-03-01T10:25:04;10.20;97.00
13684;DHT22;6914;53.552;9.908;2023-03-01T10:27:37;9.90;97.50
13684;DHT22;6914;53.552;9.908;2023-03-01T10:30:13;10.50;96.40
13684;DHT22;6914;53.552;9.908;2023-03-01T10:32:43;10.70;93.10
13684;DHT22;6914;53.552;9.908;2023-03-01T10:35:20;11.00;88.20
13684;DHT22;6914;53.552;9.908;2023-03-01T10:37:58;10.80;86.30
13684;DHT22;6914;53.552;9.908;2023-03-01T10:40:29;11.10;88.50
13684;DHT22;6914;53.552;9.908;2023-03-01T10:42:58;11.30;86.50
13684;DHT22;6914;53.552;9.908;2023-03-01T10:45:35;10.80;83.80
13684;DHT22;6914;53.552;9.908;2023-03-01T10:48:14;10.20;90.60
13684;DHT22;6914;53.552;9.908;2023-03-01T10:50:45;10.30;84.20
13684;DHT22;6914;53.552;9.908;2023-03-01T10:53:23;10.60;85.00
13684;DHT22;6914;53.552;9.908;2023-03-01T10:56:01;10.30;87.50
13684;DHT22;6914;53.552;9.908;2023-03-01T10:58:29;10.70;85.80
13684;DHT22;6914;53.552;9.908;2023-03-01T11:00:59;10.50;86.00
13684;DHT22;6914;53.552;9.908;2023-03-01T11:03:34;10.50;90.60
13684;DHT22;6914;53.552;9.908;2023-03-01T11:06:06;10.10;90.00
13684;DHT22;6914;53.552;9.908;2023-03-01T11:08:37;10.30;90.90
13684;DHT22;6914;53.552;9.908;2023-03-01T11:11:30;9.80;93.80
13684;DHT22;6914;53.552;9.908;2023-03-01T11:13:59;9.70;95.90
13684;DHT22;6914;53.552;9.908;2023-03-01T11:16:32;9.70;97.90
13684;DHT22;6914;53.552;9.908;2023-03-01T11:19:07;10.20;99.70
13684;DHT22;6914;53.552;9.908;2023-03-01T11:21:43;9.70;99.90
13684;DHT22;6914;53.552;9.908;2023-03-01T11:24:14;10.10;99.80
13684;DHT22;6914;53.552;9.908;2023-03-01T11:26:44;10.90;94.00
13684;DHT22;6914;53.552;9.908;2023-03-01T11:29:17;11.10;90.90
13684;DHT22;6914;53.552;9.908;2023-03-01T11:31:50;11.40;87.60
13684;DHT22;6914;53.552;9.908;2023-03-01T11:34:23;10.10;85.30
13684;DHT22;6914;53.552;9.908;2023-03-01T11:36:59;11.90;84.00
13684;DHT22;6914;53.552;9.908;2023-03-01T11:39:32;12.80;84.30
13684;DHT22;6914;53.552;9.908;2023-03-01T11:42:05;11.70;83.30
13684;DHT22;6914;53.552;9.908;2023-03-01T11:44:35;12.00;84.50
13684;DHT22;6914;53.552;9.908;2023-03-01T11:47:15;12.40;82.20
13684;DHT22;6914;53.552;9.908;2023-03-01T11:52:52;12.50;79.60
13684;DHT22;6914;53.552;9.908;2023-03-01T11:55:41;12.90;79.60
13684;DHT22;6914;53.552;9.908;2023-03-01T11:58:38;12.60;78.90
13684;DHT22;6914;53.552;9.908;2023-03-01T12:01:15;13.00;77.70
13684;DHT22;6914;53.552;9.908;2023-03-01T12:04:08;13.10;76.20
13684;DHT22;6914;53.552;9.908;2023-03-01T12:06:43;13.40;76.40
13684;DHT22;6914;53.552;9.908;2023-03-01T12:09:21;13.30;76.00
13684;DHT22;6914;53.552;9.908;2023-03-01T12:12:11;13.90;75.60
13684;DHT22;6914;53.552;9.908;2023-03-01T12:14:55;13.80;73.00
13684;DHT22;6914;53.552;9.908;2023-03-01T12:17:40;13.50;73.60
13684;DHT22;6914;53.552;9.908;2023-03-01T12:20:17;13.40;74.30
13684;DHT22;6914;53.552;9.908;2023-03-01T12:22:56;13.30;75.80
13684;DHT22;6914;53.552;9.908;2023-03-01T12:25:37;13.20;74.70
13684;DHT22;6914;53.552;9.908;2023-03-01T12:28:33;12.80;75.90
13684;DHT22;6914;53.552;9.908;2023-03-01T12:31:23;13.10;77.50
13684;DHT22;6914;53.552;9.908;2023-03-01T12:34:08;13.10;74.60
13684;DHT22;6914;53.552;9.908;2023-03-01T12:36:47;13.10;72.60
13684;DHT22;6914;53.552;9.908;2023-03-01T12:39:38;13.20;74.10
13684;DHT22;6914;53.552;9.908;2023-03-01T12:42:14;13.20;73.30
13684;DHT22;6914;53.552;9.908;2023-03-01T12:45:17;12.70;75.40
13684;DHT22;6914;53.552;9.908;2023-03-01T12:48:06;12.50;76.00
13684;DHT22;6914;53.552;9.908;2023-03-01T12:50:40;12.40;77.30
13684;DHT22;6914;53.552;9.908;2023-03-01T12:53:22;12.70;78.10
13684;DHT22;6914;53.552;9.908;2023-03-01T12:55:50;12.90;76.00
13684;DHT22;6914;53.552;9.908;2023-03-01T12:58:26;12.70;77.30
13684;DHT22;6914;53.552;9.908;2023-03-01T13:01:03;12.60;76.90
13684;DHT22;6914;53.552;9.908;2023-03-01T13:03:42;12.00;77.20
13684;DHT22;6914;53.552;9.908;2023-03-01T13:06:19;12.10;79.70
13684;DHT22;6914;53.552;9.908;2023-03-01T13:08:52;12.30;78.50
13684;DHT22;6914;53.552;9.908;2023-03-01T13:11:22;12.20;78.00
13684;DHT22;6914;53.552;9.908;2023-03-01T13:13:51;12.40;78.50
13684;DHT22;6914;53.552;9.908;2023-03-01T13:16:38;12.00;78.00
13684;DHT22;6914;53.552;9.908;2023-03-01T13:19:12;11.80;79.00
13684;DHT22;6914;53.552;9.908;2023-03-01T13:21:40;11.90;80.50
13684;DHT22;6914;53.552;9.908;2023-03-01T13:24:29;11.90;79.80
13684;DHT22;6914;53.552;9.908;2023-03-01T13:27:22;12.10;80.00
13684;DHT22;6914;53.552;9.908;2023-03-01T13:29:58;12.00;81.40
13684;DHT22;6914;53.552;9.908;2023-03-01T13:32:33;11.60;80.10
13684;DHT22;6914;53.552;9.908;2023-03-01T13:35:43;11.80;79.40
13684;DHT22;6914;53.552;9.908;2023-03-01T13:38:39;13.00;81.20
13684;DHT22;6914;53.552;9.908;2023-03-01T13:41:11;12.10;77.60
13684;DHT22;6914;53.552;9.908;2023-03-01T13:43:42;11.50;80.10
13684;DHT22;6914;53.552;9.908;2023-03-01T13:46:16;11.20;83.90
13684;DHT22;6914;53.552;9.908;2023-03-01T13:48:45;10.50;87.60
13684;DHT22;6914;53.552;9.908;2023-03-01T13:51:15;10.50;92.90
13684;DHT22;6914;53.552;9.908;2023-03-01T13:53:45;10.20;94.40
13684;DHT22;6914;53.552;9.908;2023-03-01T13:56:15;10.20;96.40
13684;DHT22;6914;53.552;9.908;2023-03-01T13:58:50;10.00;98.10
13684;DHT22;6914;53.552;9.908;2023-03-01T14:01:25;10.20;99.90
13684;DHT22;6914;53.552;9.908;2023-03-01T14:03:53;10.20;99.90
13684;DHT22;6914;53.552;9.908;2023-03-01T14:06:23;10.00;99.90
13684;DHT22;6914;53.552;9.908;2023-03-01T14:11:54;9.70;99.90
13684;DHT22;6914;53.552;9.908;2023-03-01T14:14:38;9.90;99.90
13684;DHT22;6914;53.552;9.908;2023-03-01T14:20:02;9.80;99.90
13684;DHT22;6914;53.552;9.908;2023-03-01T14:22:35;9.80;99.90
13684;DHT22;6914;53.552;9.908;2023-03-01T14:25:05;9.60;99.90
13684;DHT22;6914;53.552;9.908;2023-03-01T14:27:35;9.60;99.90
13684;DHT22;6914;53.552;9.908;2023-03-01T14:30:12;9.90;99.90
13684;DHT22;6914;53.552;9.908;2023-03-01T14:32:40;9.20;99.90
13684;DHT22;6914;53.552;9.908;2023-03-01T14:35:20;9.70;99.90
13684;DHT22;6914;53.552;9.908;2023-03-01T14:37:48;9.50;99.90
13684;DHT22;6914;53.552;9.908;2023-03-01T14:40:24;9.30;99.90
13684;DHT22;6914;53.552;9.908;2023-03-01T14:42:53;9.80;99.90
13684;DHT22;6914;53.552;9.908;2023-03-01T14:45:20;9.80;99.90
13684;DHT22;6914;53.552;9.908;2023-03-01T14:47:48;9.60;99.90
13684;DHT22;6914;53.552;9.908;2023-03-01T14:50:21;9.10;99.90
13684;DHT22;6914;53.552;9.908;2023-03-01T14:52:54;8.90;99.90
13684;DHT22;6914;53.552;9.908;2023-03-01T14:55:24;8.80;99.90
13684;DHT22;6914;53.552;9.908;2023-03-01T14:57:52;8.80;99.90
13684;DHT22;6914;53.552;9.908;2023-03-01T15:00:22;8.70;99.90
13684;DHT22;6914;53.552;9.908;2023-03-01T15:02:51;8.60;99.90
13684;DHT22;6914;53.552;9.908;2023-03-01T15:05:24;8.30;99.90
13684;DHT22;6914;53.552;9.908;2023-03-01T15:07:53;8.30;99.90
13684;DHT22;6914;53.552;9.908;2023-03-01T15:10:23;8.30;99.90
13684;DHT22;6914;53.552;9.908;2023-03-01T15:12:50;8.10;99.90
13684;DHT22;6914;53.552;9.908;2023-03-01T15:15:35;7.90;99.90
13684;DHT22;6914;53.552;9.908;2023-03-01T15:18:04;6.80;99.90
13684;DHT22;6914;53.552;9.908;2023-03-01T15:20:34;7.90;99.90
13684;DHT22;6914;53.552;9.908;2023-03-01T15:23:05;7.90;99.90
13684;DHT22;6914;53.552;9.908;2023-03-01T15:25:35;8.00;99.90
13684;DHT22;6914;53.552;9.908;2023-03-01T15:28:04;8.10;99.90
13684;DHT22;6914;53.552;9.908;2023-03-01T15:30:33;7.80;99.90
13684;DHT22;6914;53.552;9.908;2023-03-01T15:33:25;8.20;99.90
13684;DHT22;6914;53.552;9.908;2023-03-01T15:35:55;7.90;99.90
13684;DHT22;6914;53.552;9.908;2023-03-01T15:38:29;7.80;99.90
13684;DHT22;6914;53.552;9.908;2023-03-01T15:41:00;7.70;99.90
13684;DHT22;6914;53.552;9.908;2023-03-01T15:43:38;7.80;99.90
13684;DHT22;6914;53.552;9.908;2023-03-01T15:46:05;7.70;99.90
13684;DHT22;6914;53.552;9.908;2023-03-01T15:48:44;7.70;99.90
13684;DHT22;6914;53.552;9.908;2023-03-01T15:51:12;8.80;99.90
13684;DHT22;6914;53.552;9.908;2023-03-01T15:53:42;7.40;99.90
13684;DHT22;6914;53.552;9.908;2023-03-01T15:56:12;7.40;99.90
13684;DHT22;6914;53.552;9.908;2023-03-01T15:58:39;7.20;99.90
13684;DHT22;6914;53.552;9.908;2023-03-01T16:01:11;7.10;99.90
13684;DHT22;6914;53.552;9.908;2023-03-01T16:03:38;7.10;99.90
13684;DHT22;6914;53.552;9.908;2023-03-01T16:06:05;7.10;99.90
13684;DHT22;6914;53.552;9.908;2023-03-01T16:08:37;7.10;99.90
13684;DHT22;6914;53.552;9.908;2023-03-01T16:11:13;7.40;99.90
13684;DHT22;6914;53.552;9.908;2023-03-01T16:13:40;6.80;99.90
13684;DHT22;6914;53.552;9.908;2023-03-01T16:16:09;6.80;99.90
13684;DHT22;6914;53.552;9.908;2023-03-01T16:18:38;6.90;99.90
13684;DHT22;6914;53.552;9.908;2023-03-01T16:21:05;6.70;99.90
13684;DHT22;6914;53.552;9.908;2023-03-01T16:23:32;6.60;99.90
13684;DHT22;6914;53.552;9.908;2023-03-01T16:26:01;6.50;99.90
13684;DHT22;6914;53.552;9.908;2023-03-01T16:28:29;5.40;99.90